createdAt,value
2018-07-26T00:01:53.860Z,94690.38
2018-07-26T00:04:23.627Z,94694.80
2018-07-26T00:06:53.443Z,94683.36
2018-07-26T00:09:23.121Z,94681.25
2018-07-26T00:11:52.892Z,94677.69
2018-07-26T00:14:22.628Z,94678.75
2018-07-26T00:16:52.399Z,94674.92
2018-07-26T00:19:22.088Z,94681.08
2018-07-26T00:21:51.848Z,94679.86
2018-07-26T00:24:21.428Z,94678.88
2018-07-26T00:26:53.326Z,94678.12
2018-07-26T00:29:23.063Z,94678.52
2018-07-26T00:31:52.816Z,94677.02
2018-07-26T00:34:24.112Z,94673.33
2018-07-26T00:36:53.877Z,94681.77
2018-07-26T00:39:23.503Z,94677.60
2018-07-26T00:41:53.253Z,94674.10
2018-07-26T00:44:23.170Z,94677.53
2018-07-26T00:46:53.248Z,94682.79
2018-07-26T00:49:22.893Z,94688.47
2018-07-26T00:51:52.632Z,94690.60
2018-07-26T00:54:22.307Z,94694.97
2018-07-26T00:56:52.216Z,94695.95
2018-07-26T00:59:21.861Z,94695.34
2018-07-26T01:01:51.609Z,94698.38
2018-07-26T01:04:21.296Z,94701.44
2018-07-26T01:06:51.001Z,94703.89
2018-07-26T01:09:20.727Z,94697.07
2018-07-26T01:11:50.863Z,94700.23
2018-07-26T01:14:20.952Z,94694.86
2018-07-26T01:16:51.039Z,94691.20
2018-07-26T01:19:20.797Z,94686.37
2018-07-26T01:21:54.047Z,94693.89
2018-07-26T01:24:24.513Z,94689.80
2018-07-26T01:26:54.273Z,94682.98
2018-07-26T01:29:24.150Z,94689.25
2018-07-26T01:31:54.759Z,94681.44
2018-07-26T01:34:25.923Z,94678.66
2018-07-26T01:52:08.630Z,94682.19
2018-07-26T01:54:38.495Z,94691.91
2018-07-26T01:57:08.259Z,94689.16
2018-07-26T01:59:38.044Z,94692.77
2018-07-26T02:02:08.472Z,94694.39
2018-07-26T02:04:38.314Z,94692.89
2018-07-26T02:07:08.032Z,94696.98
2018-07-26T02:09:37.776Z,94690.95
2018-07-26T02:12:07.726Z,94687.28
2018-07-26T02:14:37.639Z,94695.00
2018-07-26T02:17:07.565Z,94690.59
2018-07-26T02:19:37.336Z,94694.02
2018-07-26T02:22:07.185Z,94694.77
2018-07-26T02:24:37.080Z,94688.59
2018-07-26T02:27:07.187Z,94691.81
2018-07-26T02:29:37.035Z,94690.99
2018-07-26T02:32:06.762Z,94695.16
2018-07-26T02:34:36.514Z,94693.94
2018-07-26T02:37:06.451Z,94704.31
2018-07-26T02:39:36.247Z,94705.42
2018-07-26T02:42:06.006Z,94706.69
2018-07-26T02:44:35.827Z,94712.65
2018-07-26T02:47:05.761Z,94709.63
2018-07-26T02:49:35.472Z,94709.86
2018-07-26T02:52:05.305Z,94703.70
2018-07-26T02:54:35.479Z,94704.55
2018-07-26T02:57:05.313Z,94703.58
2018-07-26T02:59:35.129Z,94711.35
2018-07-26T03:02:05.075Z,94718.39
2018-07-26T03:04:34.859Z,94715.74
2018-07-26T03:07:04.624Z,94719.80
2018-07-26T03:09:34.422Z,94716.69
2018-07-26T03:12:04.039Z,94721.39
2018-07-26T03:14:37.767Z,94718.02
2018-07-26T03:17:07.646Z,94719.50
2018-07-26T03:19:37.422Z,94715.80
2018-07-26T03:22:07.622Z,94727.40
2018-07-26T03:24:37.500Z,94726.47
2018-07-26T03:27:07.756Z,94729.95
2018-07-26T03:29:37.555Z,94736.32
2018-07-26T03:32:07.722Z,94731.12
2018-07-26T03:34:37.606Z,94725.71
2018-07-26T03:37:07.474Z,94736.14
2018-07-26T03:39:37.282Z,94734.22
2018-07-26T03:42:07.114Z,94740.41
2018-07-26T03:44:36.880Z,94746.94
2018-07-26T03:47:06.626Z,94751.77
2018-07-26T03:49:36.297Z,94750.86
2018-07-26T03:52:06.515Z,94752.78
2018-07-26T03:54:36.288Z,94757.26
2018-07-26T03:57:06.543Z,94758.15
2018-07-26T03:59:36.402Z,94761.04
2018-07-26T04:02:06.223Z,94760.48
2018-07-26T04:04:35.956Z,94762.69
2018-07-26T04:07:05.754Z,94775.22
2018-07-26T04:09:35.485Z,94773.18
2018-07-26T04:12:05.271Z,94776.26
2018-07-26T04:14:35.067Z,94774.05
2018-07-26T04:17:04.837Z,94784.62
2018-07-26T04:19:34.653Z,94776.05
2018-07-26T04:22:04.436Z,94777.70
2018-07-26T04:24:34.138Z,94772.66
2018-07-26T04:27:03.914Z,94771.42
2018-07-26T04:29:33.739Z,94787.03
2018-07-26T04:32:03.478Z,94786.65
2018-07-26T04:34:33.307Z,94787.25
2018-07-26T04:37:03.066Z,94789.45
2018-07-26T04:39:32.624Z,94782.78
2018-07-26T04:42:02.554Z,94780.34
2018-07-26T04:44:32.302Z,94775.95
2018-07-26T04:47:02.147Z,94781.80
2018-07-26T04:49:31.942Z,94789.44
2018-07-26T04:52:01.685Z,94792.83
2018-07-26T04:54:31.402Z,94791.70
2018-07-26T04:57:01.217Z,94797.94
2018-07-26T04:59:31.446Z,94798.66
2018-07-26T05:02:01.221Z,94802.37
2018-07-26T05:04:31.089Z,94796.73
2018-07-26T05:07:00.806Z,94800.39
2018-07-26T05:09:30.555Z,94790.28
2018-07-26T05:12:00.306Z,94799.25
2018-07-26T05:14:30.100Z,94803.48
2018-07-26T05:16:59.922Z,94808.30
2018-07-26T05:19:29.819Z,94816.53
2018-07-26T05:21:59.556Z,94817.77
2018-07-26T05:24:33.554Z,94823.14
2018-07-26T05:27:03.261Z,94828.06
2018-07-26T05:29:33.010Z,94831.97
2018-07-26T05:32:03.964Z,94826.58
2018-07-26T05:34:33.758Z,94834.98
2018-07-26T05:37:03.542Z,94829.64
2018-07-26T05:39:33.344Z,94831.55
2018-07-26T05:42:03.590Z,94824.73
2018-07-26T05:44:33.535Z,94818.18
2018-07-26T05:47:03.305Z,94813.16
2018-07-26T05:49:33.141Z,94811.99
2018-07-26T05:52:03.039Z,94818.84
2018-07-26T05:54:32.887Z,94814.10
2018-07-26T05:57:02.718Z,94817.23
2018-07-26T05:59:32.703Z,94824.09
2018-07-26T06:02:02.761Z,94825.17
2018-07-26T06:04:32.582Z,94822.56
2018-07-26T06:07:02.324Z,94831.97
2018-07-26T06:09:32.781Z,94826.37
2018-07-26T06:12:02.605Z,94828.80
2018-07-26T06:14:33.277Z,94823.05
2018-07-26T06:17:03.190Z,94815.95
2018-07-26T06:19:32.992Z,94814.15
2018-07-26T06:22:03.120Z,94818.46
2018-07-26T06:24:33.805Z,94825.27
2018-07-26T06:27:04.834Z,94825.13
2018-07-26T06:29:35.497Z,94833.30
2018-07-26T06:32:06.905Z,94829.83
2018-07-26T06:34:37.554Z,94824.89
2018-07-26T06:37:08.985Z,94605.27
2018-07-26T06:39:39.666Z,94815.12
2018-07-26T06:42:11.447Z,94816.44
2018-07-26T06:48:01.994Z,94804.97
2018-07-26T06:50:31.594Z,94806.78
2018-07-26T06:53:01.537Z,94804.85
2018-07-26T06:55:31.203Z,94810.11
2018-07-26T06:58:00.798Z,94810.40
2018-07-26T07:00:30.443Z,94808.10
2018-07-26T07:02:59.935Z,94811.09
2018-07-26T07:05:29.622Z,94817.75
2018-07-26T07:07:59.242Z,94814.12
2018-07-26T07:10:28.932Z,94811.30
2018-07-26T07:12:58.618Z,94810.11
2018-07-26T07:15:28.262Z,94810.28
2018-07-26T07:17:57.917Z,94815.20
2018-07-26T07:20:27.546Z,94804.56
2018-07-26T07:22:57.322Z,94809.98
2018-07-26T07:25:26.904Z,94811.69
2018-07-26T07:27:56.457Z,94805.38
2018-07-26T07:30:26.074Z,94806.34
2018-07-26T07:32:55.753Z,94802.44
2018-07-26T07:35:25.363Z,94805.86
2018-07-26T07:37:54.952Z,94802.07
2018-07-26T07:40:24.553Z,94798.21
2018-07-26T07:42:54.089Z,94795.54
2018-07-26T07:45:23.658Z,94797.55
2018-07-26T07:47:53.113Z,94793.38
2018-07-26T07:50:23.150Z,94803.93
2018-07-26T07:52:52.894Z,94796.84
2018-07-26T07:55:22.453Z,94796.02
2018-07-26T07:57:52.044Z,94786.53
2018-07-26T08:00:21.512Z,94788.91
2018-07-26T08:02:51.116Z,94796.55
2018-07-26T08:05:20.783Z,94798.58
2018-07-26T08:07:50.494Z,94796.94
2018-07-26T08:10:19.972Z,94801.27
2018-07-26T08:12:49.585Z,94800.61
2018-07-26T08:15:19.211Z,94803.03
2018-07-26T08:17:48.830Z,94799.09
2018-07-26T08:20:18.465Z,94800.59
2018-07-26T08:22:47.982Z,94796.11
2018-07-26T08:25:17.532Z,94793.75
2018-07-26T08:27:47.151Z,94792.44
2018-07-26T08:30:16.736Z,94795.59
2018-07-26T08:32:46.382Z,94798.45
2018-07-26T08:35:16.211Z,94793.63
2018-07-26T08:37:49.819Z,94787.56
2018-07-26T08:40:21.972Z,94784.67
2018-07-26T08:52:01.829Z,94793.48
2018-07-26T08:54:32.801Z,94795.33
2018-07-26T08:57:04.258Z,94788.30
2018-07-26T08:59:34.260Z,94782.53
2018-07-26T09:02:08.041Z,94782.57
2018-07-26T10:38:57.585Z,94779.15
2018-07-26T10:41:31.383Z,94781.44
2018-07-26T10:44:10.868Z,94788.40
2018-07-26T10:46:41.863Z,94784.53
2018-07-26T10:49:16.728Z,94780.69
2018-07-26T10:51:56.381Z,94782.98
2018-07-26T10:54:28.525Z,94782.82
2018-07-26T10:56:59.193Z,94783.75
2018-07-26T10:59:29.513Z,94778.27
2018-07-26T11:01:59.372Z,94776.78
2018-07-26T11:04:29.055Z,94776.78
2018-07-26T11:06:58.861Z,94784.31
2018-07-26T11:09:28.532Z,94786.43
2018-07-26T11:11:58.400Z,94788.95
2018-07-26T11:14:28.174Z,94791.50
2018-07-26T11:16:57.985Z,94784.03
2018-07-26T11:19:27.710Z,94789.11
2018-07-26T11:21:57.284Z,94788.57
2018-07-26T11:24:27.154Z,94780.63
2018-07-26T11:26:56.892Z,94783.33
2018-07-26T11:29:26.617Z,94783.77
2018-07-26T11:31:56.330Z,94784.97
2018-07-26T11:34:26.060Z,94776.92
2018-07-26T11:36:55.942Z,94774.39
2018-07-26T11:39:25.972Z,94775.98
2018-07-26T11:41:55.577Z,94775.65
2018-07-26T11:44:25.365Z,94764.63
2018-07-26T11:46:55.258Z,94764.48
2018-07-26T11:49:24.828Z,94767.66
2018-07-26T11:51:54.644Z,94781.13
2018-07-26T11:54:24.437Z,94781.61
2018-07-26T11:56:54.195Z,94795.20
2018-07-26T11:59:27.148Z,94797.11
2018-07-26T12:01:56.862Z,94788.60
2018-07-26T12:04:26.522Z,94789.78
2018-07-26T12:06:56.386Z,94785.97
2018-07-26T12:09:27.074Z,94788.55
2018-07-26T12:11:57.561Z,94798.68
2018-07-26T12:14:27.384Z,94804.80
2018-07-26T12:16:57.634Z,94801.89
2018-07-26T12:19:28.441Z,94807.62
2018-07-26T12:21:58.385Z,94799.53
2018-07-26T12:24:28.156Z,94793.20
2018-07-26T12:26:57.968Z,94782.50
2018-07-26T12:29:28.709Z,94782.96
2018-07-26T12:31:58.906Z,94780.45
2018-07-26T12:34:28.990Z,94783.31
2018-07-26T12:36:59.352Z,94788.78
2018-07-26T12:39:30.643Z,94792.06
2018-07-26T12:42:00.441Z,94800.05
2018-07-26T12:44:30.701Z,94799.25
2018-07-26T12:47:00.586Z,94803.34
2018-07-26T12:49:31.476Z,94806.09
2018-07-26T12:52:01.427Z,94806.80
2018-07-26T12:54:38.050Z,94804.39
2018-07-26T12:57:09.015Z,94798.59
2018-07-26T12:59:42.053Z,94797.28
2018-07-26T13:02:12.385Z,94796.14
2018-07-26T13:04:42.269Z,94796.25
2018-07-26T13:07:12.149Z,94789.47
2018-07-26T13:09:42.634Z,94788.35
2018-07-26T13:12:12.605Z,94783.72
2018-07-26T13:14:42.578Z,94785.91
2018-07-26T13:17:12.289Z,94782.23
2018-07-26T13:19:43.001Z,94774.46
2018-07-26T13:22:12.892Z,94768.73
2018-07-26T13:24:42.701Z,94773.20
2018-07-26T13:27:12.478Z,94772.70
2018-07-26T13:29:43.804Z,94776.21
2018-07-26T13:32:13.605Z,94777.52
2018-07-26T13:34:43.390Z,94777.80
2018-07-26T13:37:14.078Z,94778.24
2018-07-26T13:39:45.500Z,94771.84
2018-07-26T13:42:16.757Z,94773.38
2018-07-26T13:44:46.518Z,94772.99
2018-07-26T13:47:16.658Z,94783.78
2018-07-26T13:49:48.766Z,94782.10
2018-07-26T13:52:18.737Z,94785.78
2018-07-26T13:54:48.573Z,94781.49
2018-07-26T13:57:19.842Z,94780.27
2018-07-26T13:59:49.990Z,94780.30
2018-07-26T14:02:19.991Z,94778.60
2018-07-26T14:04:49.869Z,94774.52
2018-07-26T14:07:20.514Z,94778.03
2018-07-26T14:09:51.485Z,94778.27
2018-07-26T14:12:21.400Z,94778.95
2018-07-26T14:14:51.197Z,94778.40
2018-07-26T14:17:21.045Z,94777.20
2018-07-26T14:19:54.052Z,94782.83
2018-07-26T14:22:23.770Z,94782.83
2018-07-26T14:24:53.769Z,94785.05
2018-07-26T14:27:23.532Z,94790.02
2018-07-26T14:29:56.891Z,94787.73
2018-07-26T14:32:27.426Z,94790.53
2018-07-26T14:34:57.241Z,94790.76
2018-07-26T14:37:26.921Z,94787.08
2018-07-26T14:39:57.367Z,94783.80
2018-07-26T14:42:27.306Z,94785.49
2018-07-26T14:44:57.083Z,94788.59
2018-07-26T14:47:26.868Z,94786.67
2018-07-26T14:49:56.662Z,94787.47
2018-07-26T14:52:26.378Z,94785.90
2018-07-26T14:54:56.188Z,94785.70
2018-07-26T14:57:25.981Z,94789.89
2018-07-26T14:59:55.796Z,94786.47
2018-07-26T15:02:25.576Z,94786.31
2018-07-26T15:04:55.412Z,94781.81
2018-07-26T15:07:25.114Z,94787.44
2018-07-26T15:09:54.894Z,94784.73
2018-07-26T15:12:24.666Z,94794.60
2018-07-26T15:14:54.449Z,94787.82
2018-07-26T15:17:24.234Z,94786.08
2018-07-26T15:19:53.963Z,94779.30
2018-07-26T15:22:23.912Z,94785.09
2018-07-26T15:24:53.631Z,94786.47
2018-07-26T15:27:23.446Z,94788.73
2018-07-26T15:29:53.288Z,94793.78
2018-07-26T15:32:23.037Z,94797.22
2018-07-26T15:34:52.867Z,94801.63
2018-07-26T15:37:22.567Z,94805.38
2018-07-26T15:39:52.352Z,94806.77
2018-07-26T15:42:22.421Z,94804.63
2018-07-26T15:44:52.298Z,94800.82
2018-07-26T15:47:23.305Z,94808.42
2018-07-26T15:49:54.061Z,94808.69
2018-07-26T15:52:23.797Z,94806.75
2018-07-26T15:54:53.433Z,94810.75
2018-07-26T15:57:23.310Z,94809.66
2018-07-26T15:59:52.950Z,94809.12
2018-07-26T16:02:22.934Z,94814.22
2018-07-26T16:04:53.070Z,94812.77
2018-07-26T16:07:22.901Z,94815.02
2018-07-26T16:09:52.643Z,94820.66
2018-07-26T16:12:22.517Z,94816.55
2018-07-26T16:14:52.221Z,94824.22
2018-07-26T16:17:22.076Z,94826.98
2018-07-26T16:19:51.767Z,94830.02
2018-07-26T16:22:21.617Z,94842.50
2018-07-26T16:24:51.481Z,94839.09
2018-07-26T16:27:21.265Z,94845.31
2018-07-26T16:29:51.016Z,94848.33
2018-07-26T16:32:20.877Z,94850.44
2018-07-26T16:34:50.654Z,94856.55
2018-07-26T16:37:20.426Z,94853.12
2018-07-26T16:39:50.288Z,94855.76
2018-07-26T16:42:20.234Z,94856.91
2018-07-26T16:44:50.489Z,94855.28
2018-07-26T16:47:20.425Z,94860.14
2018-07-26T16:49:50.400Z,94867.92
2018-07-26T16:52:20.330Z,94860.27
2018-07-26T16:54:50.785Z,94864.97
2018-07-26T16:57:20.444Z,94860.53
2018-07-26T16:59:50.370Z,94861.66
2018-07-26T17:02:20.250Z,94866.65
2018-07-26T17:04:50.241Z,94863.09
2018-07-26T17:07:20.135Z,94871.59
2018-07-26T17:09:49.914Z,94874.07
2018-07-26T17:12:19.926Z,94871.08
2018-07-26T17:14:49.850Z,94884.24
2018-07-26T17:17:19.595Z,94874.19
2018-07-26T17:19:49.416Z,94871.37
2018-07-26T17:22:19.059Z,94880.09
2018-07-26T17:24:48.991Z,94876.91
2018-07-26T17:27:18.732Z,94879.53
2018-07-26T17:29:48.520Z,94887.41
2018-07-26T17:32:18.334Z,94885.13
2018-07-26T17:34:49.125Z,94883.55
2018-07-26T17:37:18.862Z,94890.86
2018-07-26T17:39:48.738Z,94891.38
2018-07-26T17:42:18.589Z,94892.67
2018-07-26T17:44:49.028Z,94895.17
2018-07-26T17:47:18.951Z,94896.45
2018-07-26T17:49:48.753Z,94897.03
2018-07-26T17:52:18.674Z,94895.33
2018-07-26T17:54:48.473Z,94896.30
2018-07-26T17:57:18.240Z,94904.09
2018-07-26T17:59:47.932Z,94902.70
2018-07-26T18:02:17.682Z,94908.07
2018-07-26T18:04:47.635Z,94914.02
2018-07-26T18:07:17.505Z,94917.30
2018-07-26T18:09:47.230Z,94918.89
2018-07-26T18:12:17.044Z,94879.44
2018-07-26T18:14:46.803Z,94924.52
2018-07-26T18:17:16.582Z,94922.54
2018-07-26T18:19:46.341Z,94917.84
2018-07-26T18:22:16.077Z,94934.52
2018-07-26T18:24:45.902Z,94935.69
2018-07-26T18:27:15.662Z,94935.91
2018-07-26T18:29:45.417Z,94937.36
2018-07-26T18:32:15.224Z,94936.73
2018-07-26T18:34:46.315Z,94933.30
2018-07-26T18:37:16.175Z,94938.88
2018-07-26T18:39:46.353Z,94947.70
2018-07-26T18:42:16.107Z,94946.06
2018-07-26T18:44:45.839Z,94951.84
2018-07-26T18:47:15.788Z,94953.88
2018-07-26T18:49:45.778Z,94951.59
2018-07-26T18:52:15.650Z,94945.17
2018-07-26T18:54:45.425Z,94952.36
2018-07-26T18:57:15.161Z,94951.73
2018-07-26T18:59:44.844Z,94953.36
2018-07-26T19:02:14.664Z,94956.90
2018-07-26T19:04:44.590Z,94951.33
2018-07-26T19:07:14.478Z,94957.22
2018-07-26T19:09:44.339Z,94961.77
2018-07-26T19:12:14.215Z,94972.85
2018-07-26T19:14:44.030Z,94977.30
2018-07-26T19:17:13.629Z,94975.80
2018-07-26T19:19:43.445Z,94976.89
2018-07-26T19:22:13.282Z,94980.34
2018-07-26T19:24:42.972Z,94989.15
2018-07-26T19:27:12.775Z,94985.00
2018-07-26T19:29:42.600Z,94986.53
2018-07-26T19:32:16.023Z,94987.98
2018-07-26T19:34:46.523Z,94989.55
2018-07-26T19:37:18.603Z,94982.48
2018-07-26T19:39:48.275Z,94974.64
2018-07-26T19:42:26.287Z,94977.70
2018-07-26T19:45:04.286Z,94974.66
2018-07-26T19:47:43.004Z,94975.41
2018-07-26T19:50:35.185Z,94973.84
2018-07-26T19:53:19.832Z,94937.30
2018-07-26T19:55:49.787Z,94980.62
2018-07-26T20:01:22.487Z,94988.08
2018-07-26T20:06:28.346Z,95002.76
2018-07-26T20:08:58.130Z,95001.83
2018-07-26T20:11:31.012Z,95008.50
2018-07-26T20:14:00.754Z,95006.46
2018-07-26T20:16:32.976Z,95011.50
2018-07-26T20:19:09.243Z,95010.84
